Alpena, Arkansas
Current Conditions -  °F | °C
As of 2:53 PM on Friday 19 Dec 2014 (Local Time) from KHRO Reporting Station
Haze Haze  
Wind Chill: 33°   Ceiling: 300
Heat Index: 37°   Visibility: 1.2mi
Dew Point: 37°   Wind: 5mph
Humidity: 100%   Direction: 120°ESE
Pressure: 30.17"   Gusts: NA
Location:  36.29°N, 93.29°W
Report Text: KHRO 192053Z AUTO 12004KT 1 1/4SM BR OVC003 03/03 A3017 RMK AO2 SLP225 60001 T00280028 56008
Loading
Personal Weather Stations






























Interactive Weather Map New forecast layout! Learn more

10-Day Weather Forecast

Advertisements
Track Severe Weather on mobile